Startpagina
METAR-TAF:

METAR-TAF

Vliegvelden :

Malé, Hulhule Island, Maldiven

Malé International Airport

breedte: 04-12N, lengte: 073-32E, hoogte: 2 m

Actueel weer

Dit bericht is 1 uur en het 1 minuten geleden gemaakt, om 01:00 UTC
Wind 13 kt uit het westen
Temperatuur 29°C
Vochtigheid 84%
Druk 1009 hPa
Zicht 10 km of meer
Weinig wolken op 1800 ft
Verspreide wolken op 11000 ft
Gebroken wolken op 27000 ft

METAR: VRMM 290100Z 26013KT 9999 FEW018 SCT110 BKN270 29/26 Q1009 NOSIG

Tijdstip: 07:01 (02:01 UTC)

Verwachting

Dit bericht is 3 uur en het 1 minuten geleden gemaakt, om 23:00 UTC
Verwachting geldig van 29 om 00 UTC tot 30 om 06 UTC
Wind 16 kt uit het westen
Zicht 10 km of meer
Weinig wolken op 1800 ft, Stapelwolken.
Tijdelijke
van 29 om 00 UTC tot 29 om 06 UTC
Zicht: 5000 m
Weinig wolken op 1700 ft, Cumulonimbus.
Gebroken wolken op 12000 ft
lichte regenbuien

TAF: VRMM 282300Z 2900/3006 27016KT 9999 FEW018TCU TEMPO 2900/2906 5000 -SHRA FEW017CB BKN120

Waarnemingen en weersverwachtingen van meer dan 4000 vliegvelden (METAR en TAF).

De beschikbare stations zijn de gele en rode punten op de kaart.

Ga met uw muis naar het station om de naam te zien.

Klik dan om waarnemingen en weersverwachtingen te zien.

kaart wijzigen: klik op de groene knoppen met een zwart kruis om in te zoomen, op de groene knop met een streepje om uit te zoomen of op de groene pijlen voor aangrenzende kaarten.


METAR-TAF: